Terminal Aerodrome Forecast
Issued by NWS Jackson, MS

Home | Current Version | Previous Version | Text Only | Print | Product List | Glossary On
Versions: 1 2 3 4 5 6 7 8 9 10 11 12 13 14 15 16 17 18 19
888
FTUS44 KMEG 060545 AAA
TAFTUP
TAF AMD
KTUP 060545Z 0606/0706 08006KT 4SM -RA BR VCTS OVC003CB
      TEMPO 0606/0610 2SM +RA BR OVC003
     FM061000 VRB05KT 4SM -RA BR OVC004
     FM061200 30009KT P6SM OVC005
      TEMPO 0612/0615 5SM -SHRA BR
     FM061600 32010KT P6SM OVC008
     FM062000 33007KT P6SM OVC012
     FM062300 01005KT P6SM OVC012=

USA.gov is the U.S. government's official web portal to all federal, state and local government web resources and services.